createdAt,value
2017-10-03T00:00:36.127Z,16.66
2017-10-03T00:01:36.151Z,16.6
2017-10-03T00:02:36.170Z,16.65
2017-10-03T00:03:36.198Z,16.53
2017-10-03T00:04:36.213Z,16.66
2017-10-03T00:05:36.234Z,16.53
2017-10-03T00:06:36.683Z,16.65
2017-10-03T00:07:36.274Z,16.54
2017-10-03T00:08:36.610Z,16.58
2017-10-03T00:09:36.320Z,16.6
2017-10-03T00:10:36.345Z,16.51
2017-10-03T00:11:36.367Z,16.53
2017-10-03T00:12:36.700Z,16.43
2017-10-03T00:13:36.406Z,16.54
2017-10-03T00:14:36.432Z,16.41
2017-10-03T00:15:36.452Z,16.5
2017-10-03T00:16:36.532Z,16.53
2017-10-03T00:17:36.500Z,16.46
2017-10-03T00:18:36.520Z,16.54
2017-10-03T00:19:36.538Z,16.56
2017-10-03T00:20:36.568Z,16.56
2017-10-03T00:21:36.596Z,16.5
2017-10-03T00:22:36.615Z,16.65
2017-10-03T00:23:36.626Z,16.68
2017-10-03T00:24:36.647Z,16.61
2017-10-03T00:25:36.984Z,16.53
2017-10-03T00:26:36.695Z,16.68
2017-10-03T00:27:36.715Z,16.58
2017-10-03T00:28:36.738Z,16.54
2017-10-03T00:29:36.768Z,16.6
2017-10-03T00:30:36.781Z,16.51
2017-10-03T00:31:36.862Z,16.46
2017-10-03T00:32:36.828Z,16.49
2017-10-03T00:33:36.844Z,16.41
2017-10-03T00:34:36.870Z,16.32
2017-10-03T00:35:36.889Z,16.33
2017-10-03T00:36:36.916Z,16.28
2017-10-03T00:37:36.931Z,16.38
2017-10-03T00:38:37.263Z,16.38
2017-10-03T00:39:36.981Z,16.26
2017-10-03T00:40:37.322Z,16.23
2017-10-03T00:41:37.327Z,16.32
2017-10-03T00:42:37.345Z,16.13
2017-10-03T00:43:37.060Z,16.24
2017-10-03T00:44:37.411Z,16.28
2017-10-03T00:45:37.102Z,16.31
2017-10-03T00:46:37.137Z,16.41
2017-10-03T00:47:37.462Z,16.23
2017-10-03T00:48:37.501Z,16.17
2017-10-03T00:49:37.188Z,16.24
2017-10-03T00:50:37.269Z,16.17
2017-10-03T00:51:37.246Z,16.23
2017-10-03T00:52:37.254Z,16.42
2017-10-03T00:53:37.586Z,16.32
2017-10-03T00:54:37.294Z,16.31
2017-10-03T00:55:37.319Z,16.31
2017-10-03T00:56:37.341Z,16.28
2017-10-03T00:57:37.364Z,16.26
2017-10-03T00:58:37.382Z,16.31
2017-10-03T00:59:37.415Z,16.28
2017-10-03T01:00:37.427Z,16.32
2017-10-03T01:01:37.758Z,16.31
2017-10-03T01:02:37.788Z,16.24
2017-10-03T01:03:37.490Z,16.21
2017-10-03T01:04:37.516Z,16.29
2017-10-03T01:05:37.533Z,16.33
2017-10-03T01:06:37.567Z,16.42
2017-10-03T01:07:37.992Z,16.33
2017-10-03T01:08:37.600Z,16.24
2017-10-03T01:09:37.622Z,16.38
2017-10-03T01:10:37.641Z,16.33
2017-10-03T01:11:37.659Z,16.33
2017-10-03T01:12:37.689Z,16.33
2017-10-03T01:13:37.702Z,16.42
2017-10-03T01:14:37.727Z,16.47
2017-10-03T01:15:37.761Z,16.36
2017-10-03T01:16:37.771Z,16.39
2017-10-03T01:17:37.794Z,16.38
2017-10-03T01:18:37.813Z,16.47
2017-10-03T01:19:37.852Z,16.57
2017-10-03T01:20:37.855Z,16.29
2017-10-03T01:21:37.876Z,16.36
2017-10-03T01:22:37.944Z,16.42
2017-10-03T01:23:37.926Z,16.43
2017-10-03T01:24:37.941Z,16.41
2017-10-03T01:25:37.966Z,16.42
2017-10-03T01:26:37.990Z,16.43
2017-10-03T01:27:38.010Z,16.36
2017-10-03T01:28:38.030Z,16.35
2017-10-03T01:29:38.069Z,16.39
2017-10-03T01:30:38.076Z,16.36
2017-10-03T01:31:39.327Z,16.31
2017-10-03T01:32:38.589Z,16.29
2017-10-03T01:33:38.138Z,16.38
2017-10-03T01:34:38.157Z,16.33
2017-10-03T01:35:38.184Z,16.31
2017-10-03T01:36:38.200Z,16.43
2017-10-03T01:37:38.279Z,16.36
2017-10-03T01:38:38.249Z,16.39
2017-10-03T01:39:38.272Z,16.46
2017-10-03T01:40:38.604Z,16.46
2017-10-03T01:41:38.305Z,16.54
2017-10-03T01:42:38.332Z,16.41
2017-10-03T01:43:38.350Z,16.42
2017-10-03T01:44:38.370Z,16.47
2017-10-03T01:45:38.714Z,16.41
2017-10-03T01:46:38.430Z,16.41
2017-10-03T01:47:38.448Z,16.36
2017-10-03T01:48:38.461Z,16.47
2017-10-03T01:49:38.481Z,16.41
2017-10-03T01:50:38.505Z,16.36
2017-10-03T01:51:38.524Z,16.51
2017-10-03T01:52:38.563Z,16.43
2017-10-03T01:53:38.569Z,16.53
2017-10-03T01:54:38.645Z,16.56
2017-10-03T01:55:38.609Z,16.58
2017-10-03T01:56:38.958Z,16.57
2017-10-03T01:57:38.660Z,16.57
2017-10-03T01:58:38.684Z,16.56
2017-10-03T01:59:38.697Z,16.58
2017-10-03T02:00:38.719Z,16.56
2017-10-03T02:01:38.746Z,16.56
2017-10-03T02:02:38.772Z,16.57
2017-10-03T02:03:38.785Z,16.54
2017-10-03T02:04:38.810Z,16.56
2017-10-03T02:05:38.831Z,16.6
2017-10-03T02:06:38.855Z,16.51
2017-10-03T02:07:38.871Z,16.53
2017-10-03T02:08:38.893Z,16.47
2017-10-03T02:09:38.929Z,16.47
2017-10-03T02:10:38.935Z,16.54
2017-10-03T02:11:39.268Z,16.64
2017-10-03T02:12:39.291Z,16.65
2017-10-03T02:13:39.003Z,16.6
2017-10-03T02:14:39.026Z,16.64
2017-10-03T02:15:39.069Z,16.53
2017-10-03T02:16:39.070Z,16.72
2017-10-03T02:17:39.090Z,16.57
2017-10-03T02:18:39.110Z,16.66
2017-10-03T02:19:39.130Z,16.57
2017-10-03T02:20:39.150Z,16.56
2017-10-03T02:21:39.174Z,16.56
2017-10-03T02:22:39.235Z,16.64
2017-10-03T02:23:39.217Z,16.68
2017-10-03T02:24:39.239Z,16.58
2017-10-03T02:25:39.581Z,16.64
2017-10-03T02:26:39.283Z,16.65
2017-10-03T02:27:40.356Z,16.68
2017-10-03T02:28:39.324Z,16.71
2017-10-03T02:29:39.347Z,16.69
2017-10-03T02:30:39.370Z,16.54
2017-10-03T02:31:39.403Z,16.64
2017-10-03T02:32:39.439Z,16.72
2017-10-03T02:33:39.432Z,16.65
2017-10-03T02:34:39.775Z,16.6
2017-10-03T02:35:39.479Z,16.61
2017-10-03T02:36:39.499Z,16.71
2017-10-03T02:37:39.587Z,16.66
2017-10-03T02:38:39.542Z,16.75
2017-10-03T02:39:39.570Z,16.76
2017-10-03T02:40:39.590Z,16.68
2017-10-03T02:41:39.615Z,16.65
2017-10-03T02:42:42.032Z,16.57
2017-10-03T02:43:39.964Z,16.64
2017-10-03T02:44:39.675Z,16.68
2017-10-03T02:45:39.696Z,16.58
2017-10-03T02:46:39.719Z,16.65
2017-10-03T02:47:39.740Z,16.65
2017-10-03T02:48:39.761Z,16.76
2017-10-03T02:49:40.103Z,16.83
2017-10-03T02:50:39.809Z,16.89
2017-10-03T02:51:39.827Z,16.94
2017-10-03T02:52:39.852Z,16.94
2017-10-03T02:53:40.195Z,16.97
2017-10-03T02:54:39.900Z,17.09
2017-10-03T02:55:39.934Z,17.16
2017-10-03T02:56:39.941Z,17.23
2017-10-03T02:57:39.962Z,17.19
2017-10-03T02:58:40.030Z,17.16
2017-10-03T02:59:40.006Z,17.06
2017-10-03T03:00:40.031Z,17.11
2017-10-03T03:01:40.058Z,17.05
2017-10-03T03:02:40.075Z,17.09
2017-10-03T03:03:40.095Z,17.06
2017-10-03T03:04:40.122Z,17.19
2017-10-03T03:05:40.145Z,17.11
2017-10-03T03:06:40.160Z,17.29
2017-10-03T03:07:40.186Z,17.29
2017-10-03T03:08:40.533Z,17.26
2017-10-03T03:09:40.228Z,17.23
2017-10-03T03:10:40.252Z,17.08
2017-10-03T03:11:40.272Z,17.02
2017-10-03T03:12:40.296Z,17.09
2017-10-03T03:13:40.368Z,16.99
2017-10-03T03:14:40.344Z,17.11
2017-10-03T03:15:40.364Z,17.15
2017-10-03T03:16:40.385Z,17.02
2017-10-03T03:17:40.410Z,17.14
2017-10-03T03:18:40.441Z,17.08
2017-10-03T03:19:40.459Z,17.11
2017-10-03T03:20:40.475Z,17.01
2017-10-03T03:21:40.501Z,17.22
2017-10-03T03:22:40.841Z,17.12
2017-10-03T03:23:40.548Z,16.99
2017-10-03T03:24:40.582Z,17.05
2017-10-03T03:25:40.593Z,16.96
2017-10-03T03:26:40.608Z,17.02
2017-10-03T03:27:40.633Z,17.02
2017-10-03T03:28:40.703Z,16.86
2017-10-03T03:29:40.673Z,17.04
2017-10-03T03:30:41.331Z,17.04
2017-10-03T03:31:40.719Z,17.09
2017-10-03T03:32:40.748Z,16.99
2017-10-03T03:33:40.777Z,16.94
2017-10-03T03:34:41.100Z,17.02
2017-10-03T03:35:40.809Z,16.87
2017-10-03T03:36:40.834Z,16.86
2017-10-03T03:37:40.856Z,16.94
2017-10-03T03:38:40.887Z,16.93
2017-10-03T03:39:40.907Z,17.04
2017-10-03T03:40:40.922Z,17.05
2017-10-03T03:41:40.946Z,16.96
2017-10-03T03:42:40.967Z,16.93
2017-10-03T03:43:40.988Z,16.94
2017-10-03T03:44:41.017Z,16.93
2017-10-03T03:45:41.034Z,16.75
2017-10-03T03:46:41.054Z,16.74
2017-10-03T03:47:41.181Z,16.81
2017-10-03T03:48:41.124Z,16.94
2017-10-03T03:49:41.142Z,16.79
2017-10-03T03:50:41.147Z,16.75
2017-10-03T03:51:41.166Z,16.81
2017-10-03T03:52:41.204Z,16.94
2017-10-03T03:53:41.234Z,16.94
2017-10-03T03:54:41.234Z,17.01
2017-10-03T03:55:41.268Z,16.93
2017-10-03T03:56:41.277Z,16.89
2017-10-03T03:57:41.301Z,16.94
2017-10-03T03:58:41.323Z,16.84
2017-10-03T03:59:41.653Z,16.93
2017-10-03T04:00:41.368Z,16.87
2017-10-03T04:01:41.392Z,16.89
2017-10-03T04:02:41.467Z,16.93
2017-10-03T04:03:41.433Z,17.01
2017-10-03T04:04:41.457Z,16.86
2017-10-03T04:05:41.495Z,16.9
2017-10-03T04:06:41.507Z,16.93
2017-10-03T04:07:41.524Z,16.83
2017-10-03T04:08:41.555Z,16.72
2017-10-03T04:09:41.569Z,16.72
2017-10-03T04:10:41.593Z,16.64
2017-10-03T04:11:41.625Z,16.65
2017-10-03T04:12:41.636Z,16.68
2017-10-03T04:13:41.657Z,16.61
2017-10-03T04:14:41.684Z,16.56
2017-10-03T04:15:41.700Z,16.71
2017-10-03T04:16:41.728Z,16.69
2017-10-03T04:17:41.748Z,16.64
2017-10-03T04:18:41.818Z,16.76
2017-10-03T04:19:41.791Z,16.65
2017-10-03T04:20:41.815Z,16.56
2017-10-03T04:21:41.831Z,16.58
2017-10-03T04:22:41.859Z,16.64
2017-10-03T04:23:41.877Z,16.6
2017-10-03T04:24:41.900Z,16.78
2017-10-03T04:25:41.923Z,16.76
2017-10-03T04:26:41.943Z,16.69
2017-10-03T04:27:41.971Z,16.65
2017-10-03T04:28:41.992Z,16.72
2017-10-03T04:29:42.010Z,16.74
2017-10-03T04:30:42.034Z,16.75
2017-10-03T04:31:42.057Z,16.72
2017-10-03T04:32:42.075Z,16.61
2017-10-03T04:33:42.147Z,16.66
2017-10-03T04:34:42.124Z,16.58
2017-10-03T04:35:42.166Z,16.74
2017-10-03T04:36:42.164Z,16.78
2017-10-03T04:37:42.185Z,16.78
2017-10-03T04:38:42.521Z,16.83
2017-10-03T04:39:42.231Z,16.74
2017-10-03T04:40:42.250Z,16.87
2017-10-03T04:41:42.276Z,16.76
2017-10-03T04:42:42.296Z,16.79
2017-10-03T04:43:42.323Z,16.79
2017-10-03T04:44:42.340Z,16.78
2017-10-03T04:45:42.362Z,16.89
2017-10-03T04:46:42.388Z,16.84
2017-10-03T04:47:42.408Z,16.91
2017-10-03T04:48:42.427Z,16.94
2017-10-03T04:49:42.448Z,16.96
2017-10-03T04:50:42.536Z,17.02
2017-10-03T04:51:42.810Z,16.93
2017-10-03T04:52:42.542Z,16.94
2017-10-03T04:53:42.871Z,16.97
2017-10-03T04:54:42.573Z,16.96
2017-10-03T04:55:42.895Z,16.97
2017-10-03T04:56:42.607Z,17.09
2017-10-03T04:57:42.630Z,17.14
2017-10-03T04:58:42.667Z,17.05
2017-10-03T04:59:42.673Z,16.96
2017-10-03T05:00:43.003Z,17.04
2017-10-03T05:01:42.721Z,17.09
2017-10-03T05:02:43.056Z,17.09
2017-10-03T05:03:42.762Z,17.08
2017-10-03T05:04:42.802Z,17.02
2017-10-03T05:05:42.810Z,17.08
2017-10-03T05:06:42.893Z,17.14
2017-10-03T05:07:42.849Z,17.23
2017-10-03T05:08:42.879Z,17.15
2017-10-03T05:09:42.893Z,17.24
2017-10-03T05:10:42.920Z,17.12
2017-10-03T05:11:43.248Z,17.22
2017-10-03T05:12:42.961Z,17.19
2017-10-03T05:13:42.988Z,17.24
2017-10-03T05:14:43.010Z,17.14
2017-10-03T05:15:43.030Z,17.22
2017-10-03T05:16:43.051Z,17.09
2017-10-03T05:17:43.075Z,17.08
2017-10-03T05:18:43.098Z,17.22
2017-10-03T05:19:43.114Z,17.04
2017-10-03T05:20:43.151Z,17.11
2017-10-03T05:21:43.170Z,17.11
2017-10-03T05:22:43.186Z,17.15
2017-10-03T05:23:43.411Z,17.26
2017-10-03T05:24:43.231Z,17.14
2017-10-03T05:25:43.252Z,17.16
2017-10-03T05:26:43.279Z,17.11
2017-10-03T05:27:43.307Z,17.02
2017-10-03T05:28:43.317Z,17.14
2017-10-03T05:29:43.338Z,17.09
2017-10-03T05:30:43.676Z,17.24
2017-10-03T05:31:43.392Z,17.23
2017-10-03T05:32:43.405Z,17.24
2017-10-03T05:33:43.437Z,17.29
2017-10-03T05:34:43.450Z,17.3
2017-10-03T05:35:43.477Z,17.29
2017-10-03T05:36:43.496Z,17.36
2017-10-03T05:37:43.830Z,17.29
2017-10-03T05:38:43.536Z,17.38
2017-10-03T05:39:43.611Z,17.3
2017-10-03T05:40:43.583Z,17.42
2017-10-03T05:41:43.609Z,17.36
2017-10-03T05:42:43.624Z,17.36
2017-10-03T05:43:43.647Z,17.46
2017-10-03T05:44:43.676Z,17.51
2017-10-03T05:45:43.697Z,17.49
2017-10-03T05:46:43.716Z,17.46
2017-10-03T05:47:43.753Z,17.46
2017-10-03T05:48:43.762Z,17.49
2017-10-03T05:49:43.783Z,17.52
2017-10-03T05:50:43.812Z,17.42
2017-10-03T05:51:43.829Z,17.49
2017-10-03T05:52:43.852Z,17.49
2017-10-03T05:53:43.869Z,17.51
2017-10-03T05:54:43.894Z,17.57
2017-10-03T05:55:43.921Z,17.44
2017-10-03T05:56:44.246Z,17.45
2017-10-03T05:57:44.019Z,17.46
2017-10-03T05:58:43.985Z,17.44
2017-10-03T05:59:44.319Z,17.51
2017-10-03T06:00:44.028Z,17.52
2017-10-03T06:01:44.051Z,17.54
2017-10-03T06:02:44.076Z,17.57
2017-10-03T06:03:44.102Z,17.51
2017-10-03T06:04:44.321Z,17.56
2017-10-03T06:05:44.145Z,17.49
2017-10-03T06:06:44.162Z,17.49
2017-10-03T06:07:44.187Z,17.52
2017-10-03T06:08:44.209Z,17.45
2017-10-03T06:09:44.236Z,17.51
2017-10-03T06:10:44.257Z,17.49
2017-10-03T06:11:44.276Z,17.54
2017-10-03T06:12:44.348Z,17.52
2017-10-03T06:13:44.319Z,17.67
2017-10-03T06:14:44.357Z,17.56
2017-10-03T06:15:44.365Z,17.68
2017-10-03T06:16:44.391Z,17.71
2017-10-03T06:17:44.724Z,17.7
2017-10-03T06:18:44.436Z,17.78
2017-10-03T06:19:44.453Z,17.74
2017-10-03T06:20:44.480Z,17.78
2017-10-03T06:21:44.499Z,17.49
2017-10-03T06:22:44.527Z,17.52
2017-10-03T06:23:44.553Z,17.42
2017-10-03T06:24:44.571Z,17.52
2017-10-03T06:25:44.917Z,17.45
2017-10-03T06:26:44.614Z,17.52
2017-10-03T06:27:44.634Z,17.45
2017-10-03T06:28:44.656Z,17.36
2017-10-03T06:29:44.681Z,17.3
2017-10-03T06:30:44.704Z,17.31
2017-10-03T06:31:44.777Z,16.68
2017-10-03T06:32:44.751Z,15.57
2017-10-03T06:33:44.770Z,15.24
2017-10-03T06:34:44.796Z,14.88
2017-10-03T06:35:44.811Z,14.81
2017-10-03T06:36:44.838Z,14.72
2017-10-03T06:37:44.865Z,14.68
2017-10-03T06:38:45.194Z,14.45
2017-10-03T06:39:44.896Z,14.51
2017-10-03T06:40:45.241Z,14.29
2017-10-03T06:41:44.944Z,14.18
2017-10-03T06:42:44.966Z,14.28
2017-10-03T06:43:44.991Z,14.28
2017-10-03T06:44:45.012Z,14.3
2017-10-03T06:45:45.028Z,14.35
2017-10-03T06:46:45.117Z,14.33
2017-10-03T06:47:45.066Z,14.4
2017-10-03T06:48:45.089Z,14.36
2017-10-03T06:49:45.108Z,14.32
2017-10-03T06:50:45.129Z,14.41
2017-10-03T06:51:45.147Z,14.37
2017-10-03T06:52:45.287Z,14.36
2017-10-03T06:53:45.202Z,14.44
2017-10-03T06:54:45.209Z,14.48
2017-10-03T06:55:45.234Z,14.32
2017-10-03T06:56:45.252Z,14.3
2017-10-03T06:57:45.286Z,14.41
2017-10-03T06:58:45.292Z,14.58
2017-10-03T06:59:45.336Z,14.51
2017-10-03T07:00:45.331Z,14.48
2017-10-03T07:01:45.411Z,14.4
2017-10-03T07:02:45.380Z,14.05
2017-10-03T07:03:45.391Z,14.11
2017-10-03T07:04:45.411Z,13.9
2017-10-03T07:05:45.435Z,13.83
2017-10-03T07:06:45.451Z,13.87
2017-10-03T07:07:45.499Z,13.9
2017-10-03T07:08:45.492Z,13.7
2017-10-03T07:09:45.509Z,13.87
2017-10-03T07:10:45.532Z,14.04
2017-10-03T07:11:45.552Z,13.9
2017-10-03T07:12:45.883Z,14
2017-10-03T07:13:45.596Z,13.9
2017-10-03T07:14:45.611Z,13.78
2017-10-03T07:15:45.639Z,13.85
2017-10-03T07:16:45.704Z,13.92
2017-10-03T07:17:45.673Z,14.07
2017-10-03T07:18:45.689Z,14.11
2017-10-03T07:19:45.712Z,14.1
2017-10-03T07:20:45.738Z,13.78
2017-10-03T07:21:45.750Z,13.81
2017-10-03T07:22:45.772Z,13.87
2017-10-03T07:23:45.789Z,13.77
2017-10-03T07:24:45.814Z,13.83
2017-10-03T07:25:45.831Z,13.85
2017-10-03T07:26:45.857Z,13.87
2017-10-03T07:27:45.871Z,13.89
2017-10-03T07:28:45.895Z,13.75
2017-10-03T07:29:46.229Z,13.87
2017-10-03T07:30:45.930Z,13.86
2017-10-03T07:31:46.259Z,13.78
2017-10-03T07:32:46.202Z,13.78
2017-10-03T07:33:46.302Z,13.7
2017-10-03T07:34:46.013Z,13.68
2017-10-03T07:35:46.031Z,13.53
2017-10-03T07:36:46.047Z,13.62
2017-10-03T07:37:46.073Z,13.71
2017-10-03T07:38:46.095Z,13.68
2017-10-03T07:39:46.114Z,13.71
2017-10-03T07:40:46.128Z,13.78
2017-10-03T07:41:46.155Z,13.81
2017-10-03T07:42:46.169Z,13.83
2017-10-03T07:43:46.499Z,13.81
2017-10-03T07:44:46.221Z,13.83
2017-10-03T07:45:46.233Z,13.85
2017-10-03T07:46:46.258Z,13.72
2017-10-03T07:47:46.277Z,13.78
2017-10-03T07:48:46.341Z,13.83
2017-10-03T07:49:46.318Z,13.83
2017-10-03T07:50:46.331Z,13.81
2017-10-03T07:51:46.350Z,13.79
2017-10-03T07:52:46.385Z,13.77
2017-10-03T07:53:46.388Z,13.67
2017-10-03T07:54:46.411Z,13.56
2017-10-03T07:55:46.433Z,13.67
2017-10-03T07:56:46.444Z,13.56
2017-10-03T07:57:46.472Z,13.63
2017-10-03T07:58:46.491Z,13.71
2017-10-03T07:59:46.509Z,13.68
2017-10-03T08:00:46.534Z,13.75
2017-10-03T08:01:46.551Z,13.85
2017-10-03T08:02:46.568Z,13.78
2017-10-03T08:03:46.591Z,13.83
2017-10-03T08:04:46.619Z,13.83
2017-10-03T08:05:46.679Z,13.79
2017-10-03T08:06:46.649Z,13.89
2017-10-03T08:07:46.673Z,13.87
2017-10-03T08:08:46.694Z,14
2017-10-03T08:09:46.761Z,13.99
2017-10-03T08:10:46.732Z,13.99
2017-10-03T08:11:46.749Z,14
2017-10-03T08:12:46.770Z,13.86
2017-10-03T08:13:46.786Z,13.68
2017-10-03T08:14:46.808Z,13.72
2017-10-03T08:15:46.833Z,13.68
2017-10-03T08:16:46.852Z,13.77
2017-10-03T08:17:46.872Z,13.79
2017-10-03T08:18:46.896Z,13.81
2017-10-03T08:19:46.910Z,13.79
2017-10-03T08:20:46.933Z,13.79
2017-10-03T08:21:46.948Z,13.72
2017-10-03T08:22:46.965Z,13.5
2017-10-03T08:23:46.995Z,13.57
2017-10-03T08:24:47.327Z,13.47
2017-10-03T08:25:47.347Z,13.52
2017-10-03T08:26:47.050Z,13.44
2017-10-03T08:27:47.072Z,13.38
2017-10-03T08:28:47.090Z,13.44
2017-10-03T08:29:47.120Z,13.33
2017-10-03T08:30:47.127Z,13.33
2017-10-03T08:31:47.148Z,13.49
2017-10-03T08:32:47.171Z,13.62
2017-10-03T08:33:47.189Z,13.59
2017-10-03T08:34:47.204Z,13.68
2017-10-03T08:35:47.227Z,13.72
2017-10-03T08:36:47.249Z,13.81
2017-10-03T08:37:47.578Z,13.74
2017-10-03T08:38:47.652Z,13.31
2017-10-03T08:39:47.323Z,13.41
2017-10-03T08:40:47.326Z,13.44
2017-10-03T08:41:47.346Z,13.37
2017-10-03T08:42:47.366Z,13.35
2017-10-03T08:43:47.391Z,13.31
2017-10-03T08:44:47.412Z,13.3
2017-10-03T08:45:47.426Z,13.39
2017-10-03T08:46:47.647Z,13.41
2017-10-03T08:47:47.464Z,13.3
2017-10-03T08:48:47.485Z,13.13
2017-10-03T08:49:47.511Z,13.08
2017-10-03T08:50:47.829Z,13
2017-10-03T08:51:48.079Z,12.95
2017-10-03T08:52:48.436Z,13
2017-10-03T08:53:49.251Z,13
2017-10-03T08:54:49.452Z,13.15
2017-10-03T08:55:48.673Z,13
2017-10-03T08:56:48.855Z,13.15
2017-10-03T08:57:48.133Z,12.98
2017-10-03T08:58:49.542Z,13
2017-10-03T08:59:48.543Z,12.98
2017-10-03T09:00:49.378Z,12.95
2017-10-03T09:01:48.678Z,13.04
2017-10-03T09:02:48.776Z,12.94
2017-10-03T09:03:48.704Z,12.94
2017-10-03T09:04:51.104Z,12.91
2017-10-03T09:05:48.679Z,12.79
2017-10-03T09:06:49.284Z,12.91
2017-10-03T09:07:47.997Z,12.97
2017-10-03T09:08:48.307Z,12.97
2017-10-03T09:09:48.354Z,12.91
2017-10-03T09:10:49.626Z,12.94
2017-10-03T09:11:48.434Z,12.91
2017-10-03T09:12:48.928Z,12.91
2017-10-03T09:13:48.393Z,12.8
2017-10-03T09:14:47.996Z,12.9
2017-10-03T09:15:48.028Z,12.83
2017-10-03T09:16:48.030Z,12.78
2017-10-03T09:17:48.394Z,12.78
2017-10-03T09:18:48.081Z,12.75
2017-10-03T09:19:48.091Z,12.6
2017-10-03T09:20:48.109Z,12.4
2017-10-03T09:21:48.123Z,12.22
2017-10-03T09:22:48.180Z,12.22
2017-10-03T09:23:48.160Z,12.1
2017-10-03T09:24:48.189Z,11.97
2017-10-03T09:25:48.200Z,12.2
2017-10-03T09:26:48.275Z,12.04
2017-10-03T09:27:48.582Z,12.09
2017-10-03T09:28:48.260Z,12.18
2017-10-03T09:29:48.540Z,12.18
2017-10-03T09:30:48.617Z,12.25
2017-10-03T09:31:48.414Z,12.31
2017-10-03T09:32:48.356Z,12.35
2017-10-03T09:33:48.435Z,12.46
2017-10-03T09:34:48.371Z,12.43
2017-10-03T09:35:48.389Z,12.37
2017-10-03T09:36:48.604Z,12.39
2017-10-03T09:37:48.448Z,12.39
2017-10-03T09:38:48.449Z,12.57
2017-10-03T09:39:48.594Z,12.58
2017-10-03T09:40:48.494Z,12.6
2017-10-03T09:41:48.788Z,12.62
2017-10-03T09:42:48.891Z,12.87
2017-10-03T09:43:49.250Z,12.82
2017-10-03T09:44:48.890Z,12.68
2017-10-03T09:45:48.835Z,12.78
2017-10-03T09:46:49.068Z,12.86
2017-10-03T09:47:49.155Z,12.94
2017-10-03T09:48:49.083Z,12.94
2017-10-03T09:49:49.013Z,13.05
2017-10-03T09:50:48.998Z,13.16
2017-10-03T09:51:48.925Z,13.03
2017-10-03T09:52:49.693Z,12.8
2017-10-03T09:53:49.056Z,12.78
2017-10-03T09:54:49.158Z,12.83
2017-10-03T09:55:49.333Z,12.79
2017-10-03T09:56:49.434Z,12.78
2017-10-03T09:57:49.317Z,12.78
2017-10-03T09:58:49.550Z,12.68
2017-10-03T09:59:50.311Z,12.79
2017-10-03T10:00:50.593Z,12.79
2017-10-03T10:01:49.586Z,12.76
2017-10-03T10:02:49.827Z,12.76
2017-10-03T10:03:49.712Z,12.94
2017-10-03T10:04:49.231Z,13
2017-10-03T10:05:49.294Z,13.09
2017-10-03T10:06:49.272Z,13.12
2017-10-03T10:07:49.398Z,13.03
2017-10-03T10:08:49.387Z,12.9
2017-10-03T10:09:49.495Z,12.78
2017-10-03T10:10:49.521Z,12.79
2017-10-03T10:11:49.867Z,12.8
2017-10-03T10:12:49.092Z,12.93
2017-10-03T10:13:49.683Z,12.85
2017-10-03T10:14:49.128Z,12.9
2017-10-03T10:15:49.301Z,12.93
2017-10-03T10:16:49.228Z,12.91
2017-10-03T10:17:49.195Z,12.95
2017-10-03T10:18:49.206Z,12.93
2017-10-03T10:19:49.232Z,13.09
2017-10-03T10:20:49.245Z,13.13
2017-10-03T10:21:49.261Z,13.25
2017-10-03T10:22:49.283Z,13.37
2017-10-03T10:23:49.302Z,13.52
2017-10-03T10:24:49.328Z,13.47
2017-10-03T10:25:49.699Z,13.65
2017-10-03T10:26:49.357Z,13.68
2017-10-03T10:27:49.382Z,13.67
2017-10-03T10:28:49.399Z,13.6
2017-10-03T10:29:49.421Z,13.65
2017-10-03T10:30:49.486Z,13.72
2017-10-03T10:31:49.472Z,13.83
2017-10-03T10:32:49.786Z,13.86
2017-10-03T10:33:49.500Z,13.83
2017-10-03T10:34:49.526Z,13.81
2017-10-03T10:35:49.536Z,13.67
2017-10-03T10:36:49.559Z,13.85
2017-10-03T10:37:49.583Z,13.7
2017-10-03T10:38:49.609Z,13.75
2017-10-03T10:39:49.932Z,13.83
2017-10-03T10:40:49.638Z,13.81
2017-10-03T10:41:49.655Z,13.95
2017-10-03T10:42:49.679Z,14.18
2017-10-03T10:43:49.692Z,14.28
2017-10-03T10:44:49.712Z,14.47
2017-10-03T10:45:50.093Z,14.81
2017-10-03T10:46:50.101Z,14.89
2017-10-03T10:47:49.777Z,15.18
2017-10-03T10:48:49.796Z,15.09
2017-10-03T10:49:49.817Z,15.17
2017-10-03T10:50:49.841Z,15.18
2017-10-03T10:51:49.859Z,15.03
2017-10-03T10:52:49.921Z,14.85
2017-10-03T10:53:49.915Z,14.77
2017-10-03T10:54:49.923Z,14.77
2017-10-03T10:55:49.939Z,14.78
2017-10-03T10:56:49.979Z,14.82
2017-10-03T10:57:49.980Z,15.02
2017-10-03T10:58:50.005Z,15.35
2017-10-03T10:59:50.039Z,15.4
2017-10-03T11:00:50.159Z,15.59
2017-10-03T11:01:50.128Z,15.67
2017-10-03T11:02:50.099Z,15.97
2017-10-03T11:03:51.271Z,16.1
2017-10-03T11:04:50.488Z,16.15
2017-10-03T11:05:50.431Z,16.04
2017-10-03T11:06:50.357Z,16.13
2017-10-03T11:07:50.811Z,16.12
2017-10-03T11:08:50.395Z,16.17
2017-10-03T11:09:50.896Z,16.1
2017-10-03T11:10:50.297Z,16.09
2017-10-03T11:11:50.343Z,15.94
2017-10-03T11:12:50.509Z,15.91
2017-10-03T11:13:50.445Z,16.05
2017-10-03T11:14:50.447Z,15.86
2017-10-03T11:15:50.515Z,15.7
2017-10-03T11:16:50.718Z,15.8
2017-10-03T11:17:50.431Z,15.86
2017-10-03T11:18:50.740Z,15.76
2017-10-03T11:19:51.213Z,15.73
2017-10-03T11:20:51.385Z,15.68
2017-10-03T11:21:50.594Z,15.9
2017-10-03T11:22:50.553Z,15.82
2017-10-03T11:23:50.627Z,15.82
2017-10-03T11:24:50.883Z,15.52
2017-10-03T11:25:50.812Z,15.64
2017-10-03T11:26:51.099Z,15.4
2017-10-03T11:27:50.713Z,15.18
2017-10-03T11:28:50.710Z,15.11
2017-10-03T11:29:51.161Z,15.07
2017-10-03T11:30:50.832Z,15.04
2017-10-03T11:31:51.276Z,14.86
2017-10-03T11:32:51.101Z,15.03
2017-10-03T11:33:51.459Z,15.25
2017-10-03T11:34:50.953Z,15.49
2017-10-03T11:35:51.512Z,15.67
2017-10-03T11:36:50.929Z,15.84
2017-10-03T11:37:51.142Z,15.92
2017-10-03T11:38:53.482Z,15.97
2017-10-03T11:39:51.033Z,16
2017-10-03T11:40:51.785Z,15.86
2017-10-03T11:41:51.270Z,15.62
2017-10-03T11:42:51.018Z,15.11
2017-10-03T11:43:51.032Z,15.03
2017-10-03T11:44:51.151Z,14.91
2017-10-03T11:45:51.229Z,14.86
2017-10-03T11:46:54.288Z,14.86
2017-10-03T11:47:51.582Z,14.92
2017-10-03T11:48:51.241Z,14.91
2017-10-03T11:49:51.879Z,14.94
2017-10-03T11:50:52.124Z,14.96
2017-10-03T11:51:51.347Z,14.84
2017-10-03T11:52:51.345Z,14.89
2017-10-03T11:53:51.593Z,14.91
2017-10-03T11:54:52.054Z,15.03
2017-10-03T11:55:51.852Z,15.39
2017-10-03T11:56:51.746Z,15.75
2017-10-03T11:57:51.960Z,15.95
2017-10-03T11:58:51.327Z,16.09
2017-10-03T11:59:51.759Z,15.95
2017-10-03T12:00:51.618Z,16.04
2017-10-03T12:01:51.671Z,16.17
2017-10-03T12:02:51.823Z,15.97
2017-10-03T12:03:51.509Z,15.83
2017-10-03T12:04:51.586Z,16.09
2017-10-03T12:05:51.617Z,16.38
2017-10-03T12:06:53.385Z,16.87
2017-10-03T12:07:52.899Z,17.46
2017-10-03T12:08:51.855Z,17.76
2017-10-03T12:09:51.579Z,18.05
2017-10-03T12:10:51.829Z,18.4
2017-10-03T12:11:52.015Z,18.92
2017-10-03T12:12:51.719Z,19.34
2017-10-03T12:13:52.332Z,19.85
2017-10-03T12:14:51.971Z,20.4
2017-10-03T12:15:51.954Z,20.7
2017-10-03T12:16:51.749Z,20.47
2017-10-03T12:17:51.779Z,20.48
2017-10-03T12:18:51.802Z,20.8
2017-10-03T12:19:51.838Z,21.29
2017-10-03T12:20:51.861Z,21.03
2017-10-03T12:21:51.886Z,21.02
2017-10-03T12:22:51.966Z,20.99
2017-10-03T12:23:51.949Z,21.03
2017-10-03T12:24:51.976Z,21.03
2017-10-03T12:25:51.999Z,21.51
2017-10-03T12:26:52.029Z,21.57
2017-10-03T12:27:52.060Z,21.4
2017-10-03T12:28:52.090Z,21.06
2017-10-03T12:29:52.116Z,20.56
2017-10-03T12:30:52.142Z,20.19
2017-10-03T12:31:52.294Z,19.64
2017-10-03T12:32:52.214Z,18.92
2017-10-03T12:33:52.226Z,18.71
2017-10-03T12:34:52.545Z,18.47
2017-10-03T12:35:52.625Z,18.19
2017-10-03T12:36:52.326Z,18.11
2017-10-03T12:37:52.335Z,18.29
2017-10-03T12:38:52.359Z,18.15
2017-10-03T12:39:52.389Z,17.85
2017-10-03T12:40:52.487Z,18
2017-10-03T12:41:52.760Z,17.67
2017-10-03T12:42:52.463Z,17.54
2017-10-03T12:43:52.495Z,18.04
2017-10-03T12:44:52.513Z,18.44
2017-10-03T12:45:52.541Z,18.45
2017-10-03T12:46:52.587Z,18.45
2017-10-03T12:47:52.587Z,18.43
2017-10-03T12:48:52.611Z,18.52
2017-10-03T12:49:52.634Z,19.07
2017-10-03T12:50:52.674Z,19.74
2017-10-03T12:51:53.002Z,20.26
2017-10-03T12:52:53.062Z,20.58
2017-10-03T12:53:53.053Z,21.51
2017-10-03T12:54:53.189Z,22.14
2017-10-03T12:55:52.933Z,22.57